Abu Musa, Iran

1:00 PM IRDT on August 29, 2015 (GMT +0430)
Abumusa | | Change Station
CLOSE
Current Station
Airport
Location: Abumusa Island / Abumusa,
Elevation: 23 ft
Nearby Weather Stations

Elev 23 ft 25.88 °N, 55.03 °E | Updated 30 minutes ago

Clear
Clear
97 °F
Feels Like 136 °F
N
9
Wind Variable Wind from SSE

Today
High -- | Low -- °F
--% Chance of Precip.
Yesterday
High -- | Low -- °F
Precip. -- in
6:29 AM 7:13 PM
Full, 100% visible
Pressure 29.59 in
Visibility 3.7 miles
Clouds
Heat Index 136 °F
Dew Point 88 °F
Humidity 75%
Rainfall 0.00 in
Snow Depth Not available.
UV Not available.
Pollen Not available.
Air Quality Not available.
Flu Activity Not available.
METAR OIBA 290800Z 15008KT 6000 NSC 36/31 Q1002
Pressure 29.59 in
Visibility 3.7 miles
Clouds
Heat Index 136 °F
Dew Point 88 °F
Humidity 75%
Rainfall 0.00 in
Snow Depth Not available.
UV Not available.
Pollen Not available.
Air Quality Not available.
Flu Activity Not available.
METAR OIBA 290800Z 15008KT 6000 NSC 36/31 Q1002

10-Day Weather Forecast

×

Almanac

Astronomy

Aug. 29, 2015 Rise Set
Actual Time
Civil Twilight
Nautical Twilight
Astronomical Twilight
Moon
Length of Visible Light
Length of Day
Tomorrow will be .
, % of the Moon is Illuminated

Today's Extremes

Country Highs Country Lows

Community

WunderPhotos

Upload Photos

1,850,634 photos uploaded!

WunderBlogs® & News

Nearby

Air Quality

  Air Quality AQ Index Pollutant
Not available.

Snow Depth

Station Depth Elevation

Earthquake Activity

City Distance Mag. Time & Date
Minimum magnitude displayed is 2.5.

Coastal Water Temperatures

Place Temperature

Stations

Nearby Weather Stations

Station Location Temp. Windchill Dew Point Humidity Wind Precip. Elev Updated Type